sensor_id;sensor_type;location;lat;lon;timestamp;pressure;altitude;pressure_sealevel;temperature
18704;BMP180;9481;48.796;9.210;2022-12-07T00:01:30;96549.00;;;11.90
18704;BMP180;9481;48.796;9.210;2022-12-07T00:03:59;96538.00;;;11.90
18704;BMP180;9481;48.796;9.210;2022-12-07T00:06:35;96545.00;;;11.90
18704;BMP180;9481;48.796;9.210;2022-12-07T00:09:01;96544.00;;;11.90
18704;BMP180;9481;48.796;9.210;2022-12-07T00:11:27;96546.00;;;12.00
18704;BMP180;9481;48.796;9.210;2022-12-07T00:13:57;96542.00;;;11.90
18704;BMP180;9481;48.796;9.210;2022-12-07T00:16:27;96543.00;;;11.90
18704;BMP180;9481;48.796;9.210;2022-12-07T00:18:53;96542.00;;;11.90
18704;BMP180;9481;48.796;9.210;2022-12-07T00:21:24;96538.00;;;11.90
18704;BMP180;9481;48.796;9.210;2022-12-07T00:23:52;96538.00;;;11.90
18704;BMP180;9481;48.796;9.210;2022-12-07T00:26:29;96537.00;;;11.90
18704;BMP180;9481;48.796;9.210;2022-12-07T00:28:59;96536.00;;;11.90
18704;BMP180;9481;48.796;9.210;2022-12-07T00:31:38;96540.00;;;11.90
18704;BMP180;9481;48.796;9.210;2022-12-07T00:34:06;96537.00;;;11.90
18704;BMP180;9481;48.796;9.210;2022-12-07T00:36:32;96544.00;;;11.90
18704;BMP180;9481;48.796;9.210;2022-12-07T00:39:01;96533.00;;;11.90
18704;BMP180;9481;48.796;9.210;2022-12-07T00:41:28;96538.00;;;11.90
18704;BMP180;9481;48.796;9.210;2022-12-07T00:44:14;96527.00;;;11.90
18704;BMP180;9481;48.796;9.210;2022-12-07T00:46:40;96527.00;;;11.90
18704;BMP180;9481;48.796;9.210;2022-12-07T00:49:06;96532.00;;;11.90
18704;BMP180;9481;48.796;9.210;2022-12-07T00:51:34;96536.00;;;11.90
18704;BMP180;9481;48.796;9.210;2022-12-07T00:54:03;96530.00;;;11.90
18704;BMP180;9481;48.796;9.210;2022-12-07T00:56:37;96533.00;;;11.90
18704;BMP180;9481;48.796;9.210;2022-12-07T00:59:04;96528.00;;;11.90
18704;BMP180;9481;48.796;9.210;2022-12-07T01:01:34;96524.00;;;11.90
18704;BMP180;9481;48.796;9.210;2022-12-07T01:04:00;96538.00;;;11.90
18704;BMP180;9481;48.796;9.210;2022-12-07T01:06:29;96530.00;;;11.90
18704;BMP180;9481;48.796;9.210;2022-12-07T01:08:56;96534.00;;;11.90
18704;BMP180;9481;48.796;9.210;2022-12-07T01:11:26;96527.00;;;11.90
18704;BMP180;9481;48.796;9.210;2022-12-07T01:13:54;96538.00;;;11.80
18704;BMP180;9481;48.796;9.210;2022-12-07T01:16:23;96536.00;;;11.80
18704;BMP180;9481;48.796;9.210;2022-12-07T01:18:52;96537.00;;;11.80
18704;BMP180;9481;48.796;9.210;2022-12-07T01:21:28;96531.00;;;11.80
18704;BMP180;9481;48.796;9.210;2022-12-07T01:23:57;96535.00;;;11.80
18704;BMP180;9481;48.796;9.210;2022-12-07T01:26:24;96527.00;;;11.90
18704;BMP180;9481;48.796;9.210;2022-12-07T01:28:51;96542.00;;;11.80
18704;BMP180;9481;48.796;9.210;2022-12-07T01:31:23;96550.00;;;11.80
18704;BMP180;9481;48.796;9.210;2022-12-07T01:33:52;96537.00;;;11.80
18704;BMP180;9481;48.796;9.210;2022-12-07T01:36:24;96546.00;;;11.80
18704;BMP180;9481;48.796;9.210;2022-12-07T01:38:55;96546.00;;;11.80
18704;BMP180;9481;48.796;9.210;2022-12-07T01:41:24;96547.00;;;11.80
18704;BMP180;9481;48.796;9.210;2022-12-07T01:44:19;96546.00;;;11.70
18704;BMP180;9481;48.796;9.210;2022-12-07T01:46:56;96542.00;;;11.70
18704;BMP180;9481;48.796;9.210;2022-12-07T01:49:47;96551.00;;;11.70
18704;BMP180;9481;48.796;9.210;2022-12-07T01:52:24;96553.00;;;11.70
18704;BMP180;9481;48.796;9.210;2022-12-07T01:54:54;96554.00;;;11.70
18704;BMP180;9481;48.796;9.210;2022-12-07T01:57:21;96542.00;;;11.70
18704;BMP180;9481;48.796;9.210;2022-12-07T01:59:49;96549.00;;;11.70
18704;BMP180;9481;48.796;9.210;2022-12-07T02:02:43;96541.00;;;11.70
18704;BMP180;9481;48.796;9.210;2022-12-07T02:05:10;96549.00;;;11.70
18704;BMP180;9481;48.796;9.210;2022-12-07T02:07:38;96556.00;;;11.70
18704;BMP180;9481;48.796;9.210;2022-12-07T02:10:23;96548.00;;;11.70
18704;BMP180;9481;48.796;9.210;2022-12-07T02:12:54;96549.00;;;11.70
18704;BMP180;9481;48.796;9.210;2022-12-07T02:15:27;96552.00;;;11.70
18704;BMP180;9481;48.796;9.210;2022-12-07T02:18:16;96556.00;;;11.70
18704;BMP180;9481;48.796;9.210;2022-12-07T02:27:07;96539.00;;;11.60
18704;BMP180;9481;48.796;9.210;2022-12-07T02:30:14;96535.00;;;11.60
18704;BMP180;9481;48.796;9.210;2022-12-07T02:33:12;96534.00;;;11.60
18704;BMP180;9481;48.796;9.210;2022-12-07T02:35:59;96530.00;;;11.60
18704;BMP180;9481;48.796;9.210;2022-12-07T02:38:59;96539.00;;;11.60
18704;BMP180;9481;48.796;9.210;2022-12-07T02:41:34;96527.00;;;11.50
18704;BMP180;9481;48.796;9.210;2022-12-07T02:44:09;96534.00;;;11.50
18704;BMP180;9481;48.796;9.210;2022-12-07T02:46:43;96529.00;;;11.50
18704;BMP180;9481;48.796;9.210;2022-12-07T02:49:11;96535.00;;;11.50
18704;BMP180;9481;48.796;9.210;2022-12-07T02:51:43;96539.00;;;11.50
18704;BMP180;9481;48.796;9.210;2022-12-07T02:54:17;96530.00;;;11.50
18704;BMP180;9481;48.796;9.210;2022-12-07T03:00:07;96520.00;;;11.40
18704;BMP180;9481;48.796;9.210;2022-12-07T03:02:53;96525.00;;;11.40
18704;BMP180;9481;48.796;9.210;2022-12-07T03:08:29;96520.00;;;11.40
18704;BMP180;9481;48.796;9.210;2022-12-07T03:13:50;96513.00;;;11.40
18704;BMP180;9481;48.796;9.210;2022-12-07T03:16:37;96509.00;;;11.40
18704;BMP180;9481;48.796;9.210;2022-12-07T03:19:18;96513.00;;;11.30
18704;BMP180;9481;48.796;9.210;2022-12-07T03:21:53;96511.00;;;11.40
18704;BMP180;9481;48.796;9.210;2022-12-07T03:24:43;96504.00;;;11.30
18704;BMP180;9481;48.796;9.210;2022-12-07T03:27:17;96503.00;;;11.40
18704;BMP180;9481;48.796;9.210;2022-12-07T03:30:02;96514.00;;;11.30
18704;BMP180;9481;48.796;9.210;2022-12-07T03:32:43;96503.00;;;11.30
18704;BMP180;9481;48.796;9.210;2022-12-07T03:35:39;96515.00;;;11.30
18704;BMP180;9481;48.796;9.210;2022-12-07T03:38:24;96503.00;;;11.30
18704;BMP180;9481;48.796;9.210;2022-12-07T03:41:00;96510.00;;;11.30
18704;BMP180;9481;48.796;9.210;2022-12-07T03:43:29;96507.00;;;11.40
18704;BMP180;9481;48.796;9.210;2022-12-07T03:46:19;96508.00;;;11.30
18704;BMP180;9481;48.796;9.210;2022-12-07T03:49:21;96504.00;;;11.30
18704;BMP180;9481;48.796;9.210;2022-12-07T03:52:12;96508.00;;;11.30
18704;BMP180;9481;48.796;9.210;2022-12-07T03:55:11;96511.00;;;11.30
18704;BMP180;9481;48.796;9.210;2022-12-07T03:57:42;96503.00;;;11.30
18704;BMP180;9481;48.796;9.210;2022-12-07T04:00:11;96503.00;;;11.30
18704;BMP180;9481;48.796;9.210;2022-12-07T04:02:38;96500.00;;;11.40
18704;BMP180;9481;48.796;9.210;2022-12-07T04:05:04;96493.00;;;11.40
18704;BMP180;9481;48.796;9.210;2022-12-07T04:07:30;96497.00;;;11.40
18704;BMP180;9481;48.796;9.210;2022-12-07T04:09:56;96500.00;;;11.40
18704;BMP180;9481;48.796;9.210;2022-12-07T04:12:22;96492.00;;;11.30
18704;BMP180;9481;48.796;9.210;2022-12-07T04:14:48;96500.00;;;11.30
18704;BMP180;9481;48.796;9.210;2022-12-07T04:17:14;96488.00;;;11.30
18704;BMP180;9481;48.796;9.210;2022-12-07T04:19:39;96494.00;;;11.20
18704;BMP180;9481;48.796;9.210;2022-12-07T04:22:06;96491.00;;;11.20
18704;BMP180;9481;48.796;9.210;2022-12-07T04:24:32;96492.00;;;11.20
18704;BMP180;9481;48.796;9.210;2022-12-07T04:26:58;96498.00;;;11.20
18704;BMP180;9481;48.796;9.210;2022-12-07T04:29:25;96491.00;;;11.20
18704;BMP180;9481;48.796;9.210;2022-12-07T04:31:51;96497.00;;;11.20
18704;BMP180;9481;48.796;9.210;2022-12-07T04:34:18;96487.00;;;11.20
18704;BMP180;9481;48.796;9.210;2022-12-07T04:36:44;96489.00;;;11.20
18704;BMP180;9481;48.796;9.210;2022-12-07T04:39:33;96469.00;;;11.10
18704;BMP180;9481;48.796;9.210;2022-12-07T04:42:00;96462.00;;;11.10
18704;BMP180;9481;48.796;9.210;2022-12-07T04:44:27;96447.00;;;11.00
18704;BMP180;9481;48.796;9.210;2022-12-07T04:46:54;96437.00;;;11.00
18704;BMP180;9481;48.796;9.210;2022-12-07T04:49:21;96447.00;;;10.90
18704;BMP180;9481;48.796;9.210;2022-12-07T04:51:47;96460.00;;;10.90
18704;BMP180;9481;48.796;9.210;2022-12-07T04:54:15;96457.00;;;10.90
18704;BMP180;9481;48.796;9.210;2022-12-07T04:56:41;96466.00;;;10.90
18704;BMP180;9481;48.796;9.210;2022-12-07T04:59:09;96462.00;;;10.90
18704;BMP180;9481;48.796;9.210;2022-12-07T05:01:35;96453.00;;;10.80
18704;BMP180;9481;48.796;9.210;2022-12-07T05:04:01;96451.00;;;10.80
18704;BMP180;9481;48.796;9.210;2022-12-07T05:06:27;96449.00;;;10.90
18704;BMP180;9481;48.796;9.210;2022-12-07T05:08:53;96452.00;;;10.80
18704;BMP180;9481;48.796;9.210;2022-12-07T05:11:19;96448.00;;;10.90
18704;BMP180;9481;48.796;9.210;2022-12-07T05:14:12;96448.00;;;10.90
18704;BMP180;9481;48.796;9.210;2022-12-07T05:16:39;96441.00;;;10.90
18704;BMP180;9481;48.796;9.210;2022-12-07T05:19:06;96446.00;;;10.90
18704;BMP180;9481;48.796;9.210;2022-12-07T05:21:32;96450.00;;;10.90
18704;BMP180;9481;48.796;9.210;2022-12-07T05:23:58;96440.00;;;10.90
18704;BMP180;9481;48.796;9.210;2022-12-07T05:26:24;96440.00;;;10.90
18704;BMP180;9481;48.796;9.210;2022-12-07T05:28:54;96447.00;;;11.00
18704;BMP180;9481;48.796;9.210;2022-12-07T05:31:20;96445.00;;;11.00
18704;BMP180;9481;48.796;9.210;2022-12-07T05:33:47;96451.00;;;11.00
18704;BMP180;9481;48.796;9.210;2022-12-07T05:36:13;96457.00;;;11.00
18704;BMP180;9481;48.796;9.210;2022-12-07T05:38:38;96458.00;;;11.00
18704;BMP180;9481;48.796;9.210;2022-12-07T05:41:06;96462.00;;;11.00
18704;BMP180;9481;48.796;9.210;2022-12-07T05:43:33;96462.00;;;11.00
18704;BMP180;9481;48.796;9.210;2022-12-07T05:45:59;96466.00;;;11.10
18704;BMP180;9481;48.796;9.210;2022-12-07T05:48:25;96466.00;;;11.10
18704;BMP180;9481;48.796;9.210;2022-12-07T05:50:52;96474.00;;;11.10
18704;BMP180;9481;48.796;9.210;2022-12-07T05:53:18;96484.00;;;11.00
18704;BMP180;9481;48.796;9.210;2022-12-07T05:55:44;96475.00;;;11.00
18704;BMP180;9481;48.796;9.210;2022-12-07T05:58:10;96486.00;;;11.00
18704;BMP180;9481;48.796;9.210;2022-12-07T06:00:57;96485.00;;;11.00
18704;BMP180;9481;48.796;9.210;2022-12-07T06:03:23;96486.00;;;10.90
18704;BMP180;9481;48.796;9.210;2022-12-07T06:05:48;96478.00;;;10.90
18704;BMP180;9481;48.796;9.210;2022-12-07T06:08:14;96483.00;;;10.90
18704;BMP180;9481;48.796;9.210;2022-12-07T06:10:41;96483.00;;;10.90
18704;BMP180;9481;48.796;9.210;2022-12-07T06:13:08;96476.00;;;10.90
18704;BMP180;9481;48.796;9.210;2022-12-07T06:15:37;96467.00;;;10.90
18704;BMP180;9481;48.796;9.210;2022-12-07T06:18:03;96475.00;;;10.90
18704;BMP180;9481;48.796;9.210;2022-12-07T06:20:28;96478.00;;;10.90
18704;BMP180;9481;48.796;9.210;2022-12-07T06:22:54;96485.00;;;10.80
18704;BMP180;9481;48.796;9.210;2022-12-07T06:25:20;96487.00;;;10.80
18704;BMP180;9481;48.796;9.210;2022-12-07T06:27:45;96479.00;;;10.80
18704;BMP180;9481;48.796;9.210;2022-12-07T06:30:11;96490.00;;;10.90
18704;BMP180;9481;48.796;9.210;2022-12-07T06:32:37;96487.00;;;10.90
18704;BMP180;9481;48.796;9.210;2022-12-07T06:35:04;96486.00;;;10.90
18704;BMP180;9481;48.796;9.210;2022-12-07T06:37:29;96483.00;;;10.90
18704;BMP180;9481;48.796;9.210;2022-12-07T06:39:55;96498.00;;;10.90
18704;BMP180;9481;48.796;9.210;2022-12-07T06:42:21;96491.00;;;10.90
18704;BMP180;9481;48.796;9.210;2022-12-07T06:44:47;96501.00;;;10.90
18704;BMP180;9481;48.796;9.210;2022-12-07T06:47:12;96499.00;;;10.90
18704;BMP180;9481;48.796;9.210;2022-12-07T06:49:38;96500.00;;;10.80
18704;BMP180;9481;48.796;9.210;2022-12-07T06:52:04;96488.00;;;10.80
18704;BMP180;9481;48.796;9.210;2022-12-07T06:54:31;96492.00;;;10.80
18704;BMP180;9481;48.796;9.210;2022-12-07T06:56:56;96484.00;;;10.80
18704;BMP180;9481;48.796;9.210;2022-12-07T06:59:22;96492.00;;;10.80
18704;BMP180;9481;48.796;9.210;2022-12-07T07:01:48;96496.00;;;10.70
18704;BMP180;9481;48.796;9.210;2022-12-07T07:04:14;96503.00;;;10.70
18704;BMP180;9481;48.796;9.210;2022-12-07T07:06:39;96511.00;;;10.70
18704;BMP180;9481;48.796;9.210;2022-12-07T07:09:05;96516.00;;;10.70
18704;BMP180;9481;48.796;9.210;2022-12-07T07:11:31;96511.00;;;10.70
18704;BMP180;9481;48.796;9.210;2022-12-07T07:13:57;96511.00;;;10.70
18704;BMP180;9481;48.796;9.210;2022-12-07T07:16:28;96518.00;;;10.80
18704;BMP180;9481;48.796;9.210;2022-12-07T07:18:55;96520.00;;;10.70
18704;BMP180;9481;48.796;9.210;2022-12-07T07:21:21;96519.00;;;10.70
18704;BMP180;9481;48.796;9.210;2022-12-07T07:23:46;96516.00;;;10.70
18704;BMP180;9481;48.796;9.210;2022-12-07T07:26:12;96517.00;;;10.70
18704;BMP180;9481;48.796;9.210;2022-12-07T07:28:38;96513.00;;;10.70
18704;BMP180;9481;48.796;9.210;2022-12-07T07:31:04;96514.00;;;10.70
18704;BMP180;9481;48.796;9.210;2022-12-07T07:33:29;96527.00;;;10.70
18704;BMP180;9481;48.796;9.210;2022-12-07T07:35:55;96522.00;;;10.70
18704;BMP180;9481;48.796;9.210;2022-12-07T07:38:21;96523.00;;;10.70
18704;BMP180;9481;48.796;9.210;2022-12-07T07:40:46;96527.00;;;10.80
18704;BMP180;9481;48.796;9.210;2022-12-07T07:43:12;96525.00;;;10.80
18704;BMP180;9481;48.796;9.210;2022-12-07T07:45:38;96524.00;;;10.80
18704;BMP180;9481;48.796;9.210;2022-12-07T07:48:03;96536.00;;;10.70
18704;BMP180;9481;48.796;9.210;2022-12-07T07:50:29;96530.00;;;10.70
18704;BMP180;9481;48.796;9.210;2022-12-07T07:52:57;96530.00;;;10.80
18704;BMP180;9481;48.796;9.210;2022-12-07T07:55:23;96527.00;;;10.80
18704;BMP180;9481;48.796;9.210;2022-12-07T07:57:48;96538.00;;;10.70
18704;BMP180;9481;48.796;9.210;2022-12-07T08:00:15;96526.00;;;10.80
18704;BMP180;9481;48.796;9.210;2022-12-07T08:02:42;96525.00;;;10.70
18704;BMP180;9481;48.796;9.210;2022-12-07T08:05:12;96525.00;;;10.70
18704;BMP180;9481;48.796;9.210;2022-12-07T08:07:39;96520.00;;;10.70
18704;BMP180;9481;48.796;9.210;2022-12-07T08:10:06;96528.00;;;10.70
18704;BMP180;9481;48.796;9.210;2022-12-07T08:12:38;96530.00;;;10.70
18704;BMP180;9481;48.796;9.210;2022-12-07T08:15:26;96530.00;;;10.70
18704;BMP180;9481;48.796;9.210;2022-12-07T08:17:51;96520.00;;;10.70
18704;BMP180;9481;48.796;9.210;2022-12-07T08:20:17;96538.00;;;10.70
18704;BMP180;9481;48.796;9.210;2022-12-07T08:22:43;96537.00;;;10.80
18704;BMP180;9481;48.796;9.210;2022-12-07T08:25:08;96524.00;;;10.80
18704;BMP180;9481;48.796;9.210;2022-12-07T08:27:34;96538.00;;;10.80
18704;BMP180;9481;48.796;9.210;2022-12-07T08:29:59;96534.00;;;10.80
18704;BMP180;9481;48.796;9.210;2022-12-07T08:32:25;96536.00;;;10.80
18704;BMP180;9481;48.796;9.210;2022-12-07T08:34:52;96534.00;;;10.80
18704;BMP180;9481;48.796;9.210;2022-12-07T08:37:18;96532.00;;;10.80
18704;BMP180;9481;48.796;9.210;2022-12-07T08:39:43;96548.00;;;10.80
18704;BMP180;9481;48.796;9.210;2022-12-07T08:42:09;96544.00;;;10.80
18704;BMP180;9481;48.796;9.210;2022-12-07T08:44:34;96545.00;;;10.80
18704;BMP180;9481;48.796;9.210;2022-12-07T08:47:04;96549.00;;;10.80
18704;BMP180;9481;48.796;9.210;2022-12-07T08:49:38;96537.00;;;10.90
18704;BMP180;9481;48.796;9.210;2022-12-07T08:52:05;96545.00;;;10.90
18704;BMP180;9481;48.796;9.210;2022-12-07T08:54:33;96544.00;;;10.90
18704;BMP180;9481;48.796;9.210;2022-12-07T08:57:01;96554.00;;;11.00
18704;BMP180;9481;48.796;9.210;2022-12-07T08:59:28;96547.00;;;11.00
18704;BMP180;9481;48.796;9.210;2022-12-07T09:01:54;96548.00;;;11.00
18704;BMP180;9481;48.796;9.210;2022-12-07T09:04:20;96548.00;;;11.00
18704;BMP180;9481;48.796;9.210;2022-12-07T09:06:46;96544.00;;;11.10
18704;BMP180;9481;48.796;9.210;2022-12-07T09:09:14;96550.00;;;11.10
18704;BMP180;9481;48.796;9.210;2022-12-07T09:11:40;96546.00;;;11.10
18704;BMP180;9481;48.796;9.210;2022-12-07T09:14:06;96529.00;;;11.10
18704;BMP180;9481;48.796;9.210;2022-12-07T09:16:32;96542.00;;;11.20
18704;BMP180;9481;48.796;9.210;2022-12-07T09:18:57;96545.00;;;11.20
18704;BMP180;9481;48.796;9.210;2022-12-07T09:21:23;96543.00;;;11.30
18704;BMP180;9481;48.796;9.210;2022-12-07T09:23:49;96541.00;;;11.30
18704;BMP180;9481;48.796;9.210;2022-12-07T09:26:14;96547.00;;;11.30
18704;BMP180;9481;48.796;9.210;2022-12-07T09:28:40;96548.00;;;11.30
18704;BMP180;9481;48.796;9.210;2022-12-07T09:31:06;96544.00;;;11.30
18704;BMP180;9481;48.796;9.210;2022-12-07T09:33:32;96535.00;;;11.30
18704;BMP180;9481;48.796;9.210;2022-12-07T09:35:58;96538.00;;;11.30
18704;BMP180;9481;48.796;9.210;2022-12-07T09:38:24;96537.00;;;11.40
18704;BMP180;9481;48.796;9.210;2022-12-07T09:40:52;96538.00;;;11.40
18704;BMP180;9481;48.796;9.210;2022-12-07T09:43:23;96544.00;;;11.40
18704;BMP180;9481;48.796;9.210;2022-12-07T09:45:53;96537.00;;;11.50
18704;BMP180;9481;48.796;9.210;2022-12-07T09:48:32;96535.00;;;11.50
18704;BMP180;9481;48.796;9.210;2022-12-07T09:51:00;96535.00;;;11.60
18704;BMP180;9481;48.796;9.210;2022-12-07T09:53:34;96532.00;;;11.60
18704;BMP180;9481;48.796;9.210;2022-12-07T09:56:02;96530.00;;;11.60
18704;BMP180;9481;48.796;9.210;2022-12-07T09:58:29;96523.00;;;11.70
18704;BMP180;9481;48.796;9.210;2022-12-07T10:01:18;96525.00;;;11.70
18704;BMP180;9481;48.796;9.210;2022-12-07T10:03:54;96514.00;;;11.80
18704;BMP180;9481;48.796;9.210;2022-12-07T10:06:20;96512.00;;;11.80
18704;BMP180;9481;48.796;9.210;2022-12-07T10:08:46;96523.00;;;11.90
18704;BMP180;9481;48.796;9.210;2022-12-07T10:11:12;96514.00;;;11.90
18704;BMP180;9481;48.796;9.210;2022-12-07T10:13:46;96510.00;;;12.00
18704;BMP180;9481;48.796;9.210;2022-12-07T10:16:41;96511.00;;;12.00
18704;BMP180;9481;48.796;9.210;2022-12-07T10:19:27;96510.00;;;12.00
18704;BMP180;9481;48.796;9.210;2022-12-07T10:22:16;96505.00;;;12.00
18704;BMP180;9481;48.796;9.210;2022-12-07T10:24:46;96496.00;;;12.00
18704;BMP180;9481;48.796;9.210;2022-12-07T10:27:31;96498.00;;;12.10
18704;BMP180;9481;48.796;9.210;2022-12-07T10:29:58;96498.00;;;12.10
18704;BMP180;9481;48.796;9.210;2022-12-07T10:32:29;96497.00;;;12.10
18704;BMP180;9481;48.796;9.210;2022-12-07T10:37:50;96494.00;;;12.10
18704;BMP180;9481;48.796;9.210;2022-12-07T10:40:34;96498.00;;;12.10
18704;BMP180;9481;48.796;9.210;2022-12-07T10:43:18;96496.00;;;12.10
18704;BMP180;9481;48.796;9.210;2022-12-07T10:48:33;96496.00;;;12.10
18704;BMP180;9481;48.796;9.210;2022-12-07T10:57:15;96475.00;;;12.00
18704;BMP180;9481;48.796;9.210;2022-12-07T11:00:25;96479.00;;;12.00
18704;BMP180;9481;48.796;9.210;2022-12-07T11:12:03;96476.00;;;11.90
18704;BMP180;9481;48.796;9.210;2022-12-07T11:14:58;96466.00;;;11.90
18704;BMP180;9481;48.796;9.210;2022-12-07T11:26:23;96444.00;;;12.00
18704;BMP180;9481;48.796;9.210;2022-12-07T11:32:22;96457.00;;;12.00
18704;BMP180;9481;48.796;9.210;2022-12-07T11:37:51;96452.00;;;12.10
18704;BMP180;9481;48.796;9.210;2022-12-07T11:40:35;96442.00;;;12.10
18704;BMP180;9481;48.796;9.210;2022-12-07T11:43:32;96435.00;;;12.10
18704;BMP180;9481;48.796;9.210;2022-12-07T11:46:12;96434.00;;;12.10
18704;BMP180;9481;48.796;9.210;2022-12-07T11:48:55;96431.00;;;12.10
18704;BMP180;9481;48.796;9.210;2022-12-07T11:51:25;96425.00;;;12.10
18704;BMP180;9481;48.796;9.210;2022-12-07T11:54:05;96416.00;;;12.10
18704;BMP180;9481;48.796;9.210;2022-12-07T11:56:37;96426.00;;;12.20
18704;BMP180;9481;48.796;9.210;2022-12-07T11:59:32;96413.00;;;12.10
18704;BMP180;9481;48.796;9.210;2022-12-07T12:02:13;96412.00;;;12.20
18704;BMP180;9481;48.796;9.210;2022-12-07T12:05:11;96420.00;;;12.10
18704;BMP180;9481;48.796;9.210;2022-12-07T12:07:40;96414.00;;;12.10
18704;BMP180;9481;48.796;9.210;2022-12-07T12:10:35;96421.00;;;12.10
18704;BMP180;9481;48.796;9.210;2022-12-07T12:13:27;96413.00;;;12.10
18704;BMP180;9481;48.796;9.210;2022-12-07T12:19:30;96401.00;;;12.10
18704;BMP180;9481;48.796;9.210;2022-12-07T12:22:16;96405.00;;;12.10
18704;BMP180;9481;48.796;9.210;2022-12-07T12:24:46;96406.00;;;12.10
18704;BMP180;9481;48.796;9.210;2022-12-07T12:27:29;96401.00;;;12.10
18704;BMP180;9481;48.796;9.210;2022-12-07T12:30:00;96397.00;;;12.20
18704;BMP180;9481;48.796;9.210;2022-12-07T12:32:39;96401.00;;;12.10
18704;BMP180;9481;48.796;9.210;2022-12-07T12:35:36;96402.00;;;12.10
18704;BMP180;9481;48.796;9.210;2022-12-07T12:38:30;96401.00;;;12.10
18704;BMP180;9481;48.796;9.210;2022-12-07T12:40:57;96391.00;;;12.20
18704;BMP180;9481;48.796;9.210;2022-12-07T12:43:46;96403.00;;;12.20
18704;BMP180;9481;48.796;9.210;2022-12-07T12:51:51;96392.00;;;12.30
18704;BMP180;9481;48.796;9.210;2022-12-07T12:54:33;96395.00;;;12.30
18704;BMP180;9481;48.796;9.210;2022-12-07T12:57:14;96392.00;;;12.30
18704;BMP180;9481;48.796;9.210;2022-12-07T13:02:48;96385.00;;;12.20
18704;BMP180;9481;48.796;9.210;2022-12-07T13:05:21;96386.00;;;12.30
18704;BMP180;9481;48.796;9.210;2022-12-07T13:07:54;96384.00;;;12.30
18704;BMP180;9481;48.796;9.210;2022-12-07T13:28:58;96357.00;;;12.30
18704;BMP180;9481;48.796;9.210;2022-12-07T13:31:36;96368.00;;;12.30
18704;BMP180;9481;48.796;9.210;2022-12-07T13:34:27;96366.00;;;12.30
18704;BMP180;9481;48.796;9.210;2022-12-07T13:36:51;96361.00;;;12.30
18704;BMP180;9481;48.796;9.210;2022-12-07T13:39:24;96365.00;;;12.30
18704;BMP180;9481;48.796;9.210;2022-12-07T13:41:56;96362.00;;;12.40
18704;BMP180;9481;48.796;9.210;2022-12-07T13:44:33;96359.00;;;12.40
18704;BMP180;9481;48.796;9.210;2022-12-07T13:47:36;96362.00;;;12.40
18704;BMP180;9481;48.796;9.210;2022-12-07T13:50:27;96358.00;;;12.40
18704;BMP180;9481;48.796;9.210;2022-12-07T13:52:58;96367.00;;;12.40
18704;BMP180;9481;48.796;9.210;2022-12-07T13:55:26;96364.00;;;12.40
18704;BMP180;9481;48.796;9.210;2022-12-07T13:57:54;96359.00;;;12.40
18704;BMP180;9481;48.796;9.210;2022-12-07T14:00:26;96348.00;;;12.40
18704;BMP180;9481;48.796;9.210;2022-12-07T14:05:33;96354.00;;;12.40
18704;BMP180;9481;48.796;9.210;2022-12-07T14:08:21;96356.00;;;12.40
18704;BMP180;9481;48.796;9.210;2022-12-07T14:13:55;96354.00;;;12.30
18704;BMP180;9481;48.796;9.210;2022-12-07T14:16:35;96350.00;;;12.40
18704;BMP180;9481;48.796;9.210;2022-12-07T14:22:34;96361.00;;;12.40
18704;BMP180;9481;48.796;9.210;2022-12-07T14:25:24;96354.00;;;12.40
18704;BMP180;9481;48.796;9.210;2022-12-07T14:28:00;96353.00;;;12.40
18704;BMP180;9481;48.796;9.210;2022-12-07T14:30:32;96349.00;;;12.40
18704;BMP180;9481;48.796;9.210;2022-12-07T14:33:01;96348.00;;;12.40
18704;BMP180;9481;48.796;9.210;2022-12-07T14:35:28;96347.00;;;12.40
18704;BMP180;9481;48.796;9.210;2022-12-07T14:37:54;96353.00;;;12.40
18704;BMP180;9481;48.796;9.210;2022-12-07T14:40:24;96354.00;;;12.50
18704;BMP180;9481;48.796;9.210;2022-12-07T14:42:55;96355.00;;;12.50
18704;BMP180;9481;48.796;9.210;2022-12-07T14:45:23;96354.00;;;12.50
18704;BMP180;9481;48.796;9.210;2022-12-07T14:47:49;96355.00;;;12.50
18704;BMP180;9481;48.796;9.210;2022-12-07T14:50:19;96356.00;;;12.40
18704;BMP180;9481;48.796;9.210;2022-12-07T14:52:52;96352.00;;;12.40
18704;BMP180;9481;48.796;9.210;2022-12-07T14:55:29;96357.00;;;12.30
18704;BMP180;9481;48.796;9.210;2022-12-07T14:57:56;96355.00;;;12.30
18704;BMP180;9481;48.796;9.210;2022-12-07T15:00:25;96349.00;;;12.30
18704;BMP180;9481;48.796;9.210;2022-12-07T15:02:52;96349.00;;;12.20
18704;BMP180;9481;48.796;9.210;2022-12-07T15:05:18;96357.00;;;12.20
18704;BMP180;9481;48.796;9.210;2022-12-07T15:07:45;96355.00;;;12.20
18704;BMP180;9481;48.796;9.210;2022-12-07T15:10:26;96343.00;;;12.20
18704;BMP180;9481;48.796;9.210;2022-12-07T15:12:56;96359.00;;;12.20
18704;BMP180;9481;48.796;9.210;2022-12-07T15:15:42;96359.00;;;12.20
18704;BMP180;9481;48.796;9.210;2022-12-07T15:18:07;96349.00;;;12.20
18704;BMP180;9481;48.796;9.210;2022-12-07T15:20:33;96367.00;;;12.10
18704;BMP180;9481;48.796;9.210;2022-12-07T15:22:59;96356.00;;;12.10
18704;BMP180;9481;48.796;9.210;2022-12-07T15:25:24;96353.00;;;12.10
18704;BMP180;9481;48.796;9.210;2022-12-07T15:27:50;96356.00;;;12.10
18704;BMP180;9481;48.796;9.210;2022-12-07T15:30:16;96346.00;;;12.10
18704;BMP180;9481;48.796;9.210;2022-12-07T15:32:41;96355.00;;;12.10
18704;BMP180;9481;48.796;9.210;2022-12-07T15:35:07;96349.00;;;12.10
18704;BMP180;9481;48.796;9.210;2022-12-07T15:37:33;96354.00;;;12.10
18704;BMP180;9481;48.796;9.210;2022-12-07T15:39:59;96357.00;;;12.10
18704;BMP180;9481;48.796;9.210;2022-12-07T15:42:24;96358.00;;;12.10
18704;BMP180;9481;48.796;9.210;2022-12-07T15:44:50;96354.00;;;12.10
18704;BMP180;9481;48.796;9.210;2022-12-07T15:47:37;96348.00;;;12.10
18704;BMP180;9481;48.796;9.210;2022-12-07T15:50:08;96356.00;;;12.10
18704;BMP180;9481;48.796;9.210;2022-12-07T15:52:34;96355.00;;;12.10
18704;BMP180;9481;48.796;9.210;2022-12-07T15:55:00;96350.00;;;12.10
18704;BMP180;9481;48.796;9.210;2022-12-07T15:57:28;96349.00;;;12.20
18704;BMP180;9481;48.796;9.210;2022-12-07T15:59:54;96345.00;;;12.20
18704;BMP180;9481;48.796;9.210;2022-12-07T16:02:20;96349.00;;;12.20
18704;BMP180;9481;48.796;9.210;2022-12-07T16:04:46;96349.00;;;12.20
18704;BMP180;9481;48.796;9.210;2022-12-07T16:07:11;96352.00;;;12.20
18704;BMP180;9481;48.796;9.210;2022-12-07T16:09:41;96346.00;;;12.10
18704;BMP180;9481;48.796;9.210;2022-12-07T16:12:07;96353.00;;;12.10
18704;BMP180;9481;48.796;9.210;2022-12-07T16:14:33;96335.00;;;12.10
18704;BMP180;9481;48.796;9.210;2022-12-07T16:16:59;96333.00;;;12.00
18704;BMP180;9481;48.796;9.210;2022-12-07T16:19:25;96340.00;;;12.00